JFA22R LFOQ-LFCF
Flight info
| Callsign | JFA22R |
|---|---|
| Flight time | 0h 57m |
| Altitude | 23000 |
| Route | DIBES DCT AMB UN859 SOPIL DCT ESISI |
| Aircraft | PC12/L-SBDFGRWY/LB1 |
Departure
| Time | 2026-04-23 18:01 |
|---|---|
| Airport | Blois Le Breuil Airfield (LFOQ) |
Arrival
| Time | 2026-04-23 18:58 |
|---|---|
| Airport | Aérodrome de Figeac - Livernon (LFCF) |
| Time | Latitude | Longitude | Altitude | Speed | Heading |
|---|---|---|---|---|---|
| 2026-04-23 17:40 | 47.68202 | 1.20672 | 398 ft | 0 kts | 33° |
| 2026-04-23 17:57 | 47.68204 | 1.20674 | 398 ft | 1 kts | 29° |
| 2026-04-23 17:57 | 47.68257 | 1.20571 | 399 ft | 10 kts | 305° |
| 2026-04-23 17:58 | 47.68289 | 1.20466 | 400 ft | 11 kts | 256° |
| 2026-04-23 17:58 | 47.68234 | 1.20378 | 400 ft | 11 kts | 258° |
| 2026-04-23 17:58 | 47.68215 | 1.20248 | 400 ft | 12 kts | 256° |
| 2026-04-23 17:58 | 47.68212 | 1.20232 | 400 ft | 0 kts | 256° |
| 2026-04-23 18:00 | 47.68206 | 1.20199 | 400 ft | 8 kts | 246° |
| 2026-04-23 18:01 | 47.68143 | 1.20194 | 400 ft | 14 kts | 122° |
| 2026-04-23 18:01 | 47.67991 | 1.20551 | 397 ft | 78 kts | 120° |
| 2026-04-23 18:01 | 47.67642 | 1.21368 | 611 ft | 105 kts | 112° |
| 2026-04-23 18:01 | 47.67292 | 1.22261 | 1158 ft | 102 kts | 107° |
| 2026-04-23 18:02 | 47.67168 | 1.22864 | 1619 ft | 89 kts | 88° |
| 2026-04-23 18:02 | 47.67770 | 1.23839 | 2028 ft | 123 kts | 41° |
| 2026-04-23 18:02 | 47.68534 | 1.24379 | 2619 ft | 134 kts | 13° |
| 2026-04-23 18:02 | 47.69367 | 1.23491 | 2986 ft | 178 kts | 291° |
| 2026-04-23 18:03 | 47.69133 | 1.21751 | 3412 ft | 177 kts | 217° |
| 2026-04-23 18:03 | 47.68175 | 1.20832 | 4071 ft | 161 kts | 198° |
| 2026-04-23 18:03 | 47.67168 | 1.20145 | 4622 ft | 159 kts | 194° |
| 2026-04-23 18:03 | 47.66157 | 1.19524 | 5156 ft | 159 kts | 194° |
| 2026-04-23 18:04 | 47.65142 | 1.18918 | 5670 ft | 159 kts | 194° |
| 2026-04-23 18:04 | 47.64116 | 1.18314 | 6211 ft | 160 kts | 194° |
| 2026-04-23 18:04 | 47.63099 | 1.17714 | 6810 ft | 160 kts | 194° |
| 2026-04-23 18:04 | 47.62066 | 1.17104 | 7378 ft | 161 kts | 194° |
| 2026-04-23 18:05 | 47.61021 | 1.16490 | 7927 ft | 163 kts | 194° |
| 2026-04-23 18:05 | 47.59967 | 1.15871 | 8468 ft | 164 kts | 194° |
| 2026-04-23 18:05 | 47.58910 | 1.15251 | 9015 ft | 166 kts | 194° |
| 2026-04-23 18:05 | 47.57834 | 1.14620 | 9557 ft | 168 kts | 194° |
| 2026-04-23 18:06 | 47.56752 | 1.13985 | 10097 ft | 169 kts | 194° |
| 2026-04-23 18:06 | 47.55651 | 1.13342 | 10609 ft | 172 kts | 194° |
| 2026-04-23 18:06 | 47.54539 | 1.12694 | 11150 ft | 174 kts | 195° |
| 2026-04-23 18:06 | 47.53417 | 1.12036 | 11677 ft | 175 kts | 195° |
| 2026-04-23 18:07 | 47.52284 | 1.11372 | 12173 ft | 178 kts | 195° |
| 2026-04-23 18:07 | 47.51129 | 1.10698 | 12679 ft | 180 kts | 195° |
| 2026-04-23 18:07 | 47.50045 | 1.09734 | 13143 ft | 184 kts | 204° |
| 2026-04-23 18:07 | 47.48852 | 1.09206 | 13596 ft | 181 kts | 186° |
| 2026-04-23 18:08 | 47.48021 | 1.08914 | 13902 ft | 184 kts | 188° |
| 2026-04-23 18:08 | 47.46372 | 1.08195 | 14482 ft | 188 kts | 192° |
| 2026-04-23 18:08 | 47.45124 | 1.07584 | 14909 ft | 191 kts | 194° |
| 2026-04-23 18:08 | 47.43879 | 1.06953 | 15319 ft | 193 kts | 194° |
| 2026-04-23 18:09 | 47.42586 | 1.06468 | 15740 ft | 191 kts | 181° |
| 2026-04-23 18:09 | 47.41247 | 1.06384 | 16123 ft | 193 kts | 176° |
| 2026-04-23 18:09 | 47.39903 | 1.06365 | 16492 ft | 196 kts | 176° |
| 2026-04-23 18:09 | 47.38522 | 1.06341 | 16896 ft | 197 kts | 176° |
| 2026-04-23 18:10 | 47.37143 | 1.06311 | 17255 ft | 200 kts | 177° |
| 2026-04-23 18:10 | 47.35760 | 1.06279 | 17630 ft | 201 kts | 177° |
| 2026-04-23 18:10 | 47.34345 | 1.06248 | 17946 ft | 205 kts | 178° |
| 2026-04-23 18:10 | 47.32914 | 1.06213 | 18295 ft | 206 kts | 178° |
| 2026-04-23 18:11 | 47.31484 | 1.06177 | 18585 ft | 210 kts | 178° |
| 2026-04-23 18:11 | 47.30011 | 1.06144 | 18929 ft | 211 kts | 179° |
| 2026-04-23 18:11 | 47.28521 | 1.06108 | 19260 ft | 212 kts | 179° |
| 2026-04-23 18:11 | 47.27048 | 1.06073 | 19564 ft | 214 kts | 179° |
| 2026-04-23 18:12 | 47.25551 | 1.06039 | 19833 ft | 218 kts | 179° |
| 2026-04-23 18:12 | 47.24025 | 1.06006 | 20140 ft | 219 kts | 180° |
| 2026-04-23 18:12 | 47.22487 | 1.05972 | 20390 ft | 222 kts | 181° |
| 2026-04-23 18:12 | 47.20936 | 1.05931 | 20699 ft | 222 kts | 181° |
| 2026-04-23 18:13 | 47.19385 | 1.05892 | 20967 ft | 225 kts | 180° |
| 2026-04-23 18:13 | 47.17838 | 1.05855 | 21241 ft | 226 kts | 180° |
| 2026-04-23 18:13 | 47.16252 | 1.05822 | 21486 ft | 228 kts | 181° |
| 2026-04-23 18:13 | 47.14658 | 1.05787 | 21760 ft | 228 kts | 181° |
| 2026-04-23 18:14 | 47.13067 | 1.05749 | 21987 ft | 231 kts | 182° |
| 2026-04-23 18:14 | 47.11449 | 1.05714 | 22222 ft | 233 kts | 182° |
| 2026-04-23 18:14 | 47.09829 | 1.05678 | 22486 ft | 233 kts | 183° |
| 2026-04-23 18:14 | 47.08209 | 1.05638 | 22691 ft | 235 kts | 183° |
| 2026-04-23 18:15 | 47.06569 | 1.05598 | 22911 ft | 237 kts | 183° |
| 2026-04-23 18:15 | 47.04900 | 1.05560 | 23137 ft | 238 kts | 184° |
| 2026-04-23 18:15 | 47.03234 | 1.05526 | 23326 ft | 241 kts | 185° |
| 2026-04-23 18:15 | 47.01565 | 1.05676 | 23555 ft | 243 kts | 176° |
| 2026-04-23 18:16 | 46.99873 | 1.05977 | 23771 ft | 245 kts | 176° |
| 2026-04-23 18:16 | 46.98192 | 1.06290 | 23955 ft | 247 kts | 176° |
| 2026-04-23 18:16 | 46.96596 | 1.06583 | 24181 ft | 246 kts | 176° |
| 2026-04-23 18:17 | 46.93188 | 1.07206 | 24617 ft | 246 kts | 176° |
| 2026-04-23 18:17 | 46.91482 | 1.07515 | 24842 ft | 246 kts | 176° |
| 2026-04-23 18:17 | 46.89784 | 1.07821 | 25033 ft | 247 kts | 176° |
| 2026-04-23 18:17 | 46.88074 | 1.08131 | 25139 ft | 251 kts | 176° |
| 2026-04-23 18:18 | 46.86307 | 1.08451 | 25148 ft | 259 kts | 176° |
| 2026-04-23 18:18 | 46.84465 | 1.08780 | 25145 ft | 267 kts | 176° |
| 2026-04-23 18:18 | 46.82612 | 1.09118 | 25143 ft | 274 kts | 176° |
| 2026-04-23 18:18 | 46.80691 | 1.09465 | 25140 ft | 280 kts | 176° |
| 2026-04-23 18:19 | 46.78750 | 1.09814 | 25138 ft | 284 kts | 176° |
| 2026-04-23 18:19 | 46.76786 | 1.10170 | 25141 ft | 287 kts | 176° |
| 2026-04-23 18:19 | 46.74773 | 1.10532 | 25137 ft | 290 kts | 176° |
| 2026-04-23 18:19 | 46.72784 | 1.10890 | 25137 ft | 291 kts | 176° |
| 2026-04-23 18:20 | 46.70750 | 1.11257 | 25136 ft | 293 kts | 176° |
| 2026-04-23 18:20 | 46.68745 | 1.11619 | 25139 ft | 294 kts | 176° |
| 2026-04-23 18:20 | 46.66703 | 1.11985 | 25138 ft | 295 kts | 176° |
| 2026-04-23 18:20 | 46.64662 | 1.12351 | 25139 ft | 296 kts | 176° |
| 2026-04-23 18:21 | 46.62622 | 1.12714 | 25136 ft | 297 kts | 176° |
| 2026-04-23 18:21 | 46.60564 | 1.13085 | 25133 ft | 297 kts | 175° |
| 2026-04-23 18:21 | 46.58498 | 1.13455 | 25132 ft | 298 kts | 176° |
| 2026-04-23 18:21 | 46.56449 | 1.13824 | 25128 ft | 298 kts | 176° |
| 2026-04-23 18:22 | 46.54380 | 1.14191 | 25129 ft | 298 kts | 175° |
| 2026-04-23 18:22 | 46.52321 | 1.14559 | 25130 ft | 298 kts | 176° |
| 2026-04-23 18:22 | 46.50254 | 1.14931 | 25130 ft | 298 kts | 176° |
| 2026-04-23 18:22 | 46.48194 | 1.15296 | 25129 ft | 298 kts | 176° |
| 2026-04-23 18:23 | 46.46844 | 1.15536 | 25129 ft | 298 kts | 176° |
| 2026-04-23 18:23 | 46.42033 | 1.16394 | 25123 ft | 297 kts | 176° |
| 2026-04-23 18:24 | 46.37925 | 1.17124 | 25124 ft | 297 kts | 176° |
| 2026-04-23 18:24 | 46.35865 | 1.17488 | 25128 ft | 297 kts | 176° |
| 2026-04-23 18:24 | 46.33821 | 1.17852 | 25130 ft | 297 kts | 176° |
| 2026-04-23 18:25 | 46.29710 | 1.18582 | 25128 ft | 297 kts | 176° |
| 2026-04-23 18:25 | 46.27665 | 1.18945 | 25130 ft | 297 kts | 176° |
| 2026-04-23 18:25 | 46.25622 | 1.19304 | 25133 ft | 297 kts | 176° |
| 2026-04-23 18:25 | 46.23546 | 1.19671 | 25131 ft | 297 kts | 176° |
| 2026-04-23 18:26 | 46.21505 | 1.20033 | 25130 ft | 297 kts | 176° |
| 2026-04-23 18:26 | 46.19450 | 1.20396 | 25135 ft | 297 kts | 176° |
| 2026-04-23 18:26 | 46.17399 | 1.20757 | 25137 ft | 297 kts | 176° |
| 2026-04-23 18:26 | 46.15432 | 1.21103 | 25141 ft | 297 kts | 176° |
| 2026-04-23 18:27 | 46.13382 | 1.21464 | 25138 ft | 297 kts | 176° |
| 2026-04-23 18:27 | 46.11330 | 1.21824 | 25136 ft | 297 kts | 176° |
| 2026-04-23 18:27 | 46.09296 | 1.22183 | 25134 ft | 297 kts | 176° |
| 2026-04-23 18:27 | 46.07241 | 1.22545 | 25126 ft | 297 kts | 176° |
| 2026-04-23 18:28 | 46.05193 | 1.22906 | 25127 ft | 297 kts | 176° |
| 2026-04-23 18:28 | 46.03245 | 1.23246 | 25129 ft | 297 kts | 176° |
| 2026-04-23 18:28 | 46.01088 | 1.23625 | 25136 ft | 297 kts | 176° |
| 2026-04-23 18:28 | 45.99040 | 1.23983 | 25142 ft | 297 kts | 176° |
| 2026-04-23 18:29 | 45.96980 | 1.24344 | 25134 ft | 297 kts | 176° |
| 2026-04-23 18:29 | 45.94913 | 1.24705 | 25133 ft | 297 kts | 176° |
| 2026-04-23 18:29 | 45.92869 | 1.25063 | 25138 ft | 296 kts | 176° |
| 2026-04-23 18:29 | 45.90804 | 1.25423 | 25141 ft | 296 kts | 176° |
| 2026-04-23 18:30 | 45.88781 | 1.25776 | 25133 ft | 297 kts | 176° |
| 2026-04-23 18:30 | 45.86723 | 1.26133 | 24906 ft | 296 kts | 176° |
| 2026-04-23 18:30 | 45.84696 | 1.26487 | 24510 ft | 295 kts | 176° |
| 2026-04-23 18:30 | 45.82756 | 1.26824 | 24130 ft | 293 kts | 176° |
| 2026-04-23 18:31 | 45.80721 | 1.27180 | 23736 ft | 292 kts | 176° |
| 2026-04-23 18:31 | 45.78708 | 1.27529 | 23343 ft | 290 kts | 176° |
| 2026-04-23 18:31 | 45.76707 | 1.27879 | 22953 ft | 289 kts | 176° |
| 2026-04-23 18:31 | 45.74721 | 1.28223 | 22566 ft | 288 kts | 176° |
| 2026-04-23 18:32 | 45.72734 | 1.28568 | 22177 ft | 286 kts | 176° |
| 2026-04-23 18:32 | 45.70780 | 1.28906 | 21795 ft | 285 kts | 176° |
| 2026-04-23 18:32 | 45.68811 | 1.29248 | 21412 ft | 284 kts | 176° |
| 2026-04-23 18:32 | 45.66863 | 1.29584 | 21031 ft | 283 kts | 176° |
| 2026-04-23 18:33 | 45.64912 | 1.29922 | 20647 ft | 282 kts | 176° |
| 2026-04-23 18:33 | 45.62966 | 1.30258 | 20266 ft | 281 kts | 175° |
| 2026-04-23 18:33 | 45.61049 | 1.30589 | 19888 ft | 280 kts | 175° |
| 2026-04-23 18:33 | 45.59102 | 1.30926 | 19505 ft | 279 kts | 175° |
| 2026-04-23 18:34 | 45.57196 | 1.31254 | 19129 ft | 278 kts | 175° |
| 2026-04-23 18:34 | 45.55270 | 1.31588 | 18749 ft | 277 kts | 175° |
| 2026-04-23 18:34 | 45.53370 | 1.31915 | 18374 ft | 276 kts | 175° |
| 2026-04-23 18:34 | 45.51463 | 1.32243 | 17996 ft | 274 kts | 175° |
| 2026-04-23 18:35 | 45.49580 | 1.32566 | 17628 ft | 273 kts | 175° |
| 2026-04-23 18:35 | 45.47697 | 1.32890 | 17261 ft | 272 kts | 174° |
| 2026-04-23 18:35 | 45.45823 | 1.33211 | 16892 ft | 271 kts | 174° |
| 2026-04-23 18:35 | 45.43958 | 1.33531 | 16522 ft | 269 kts | 174° |
| 2026-04-23 18:36 | 45.42075 | 1.33855 | 16148 ft | 268 kts | 174° |
| 2026-04-23 18:36 | 45.40243 | 1.34169 | 15780 ft | 267 kts | 174° |
| 2026-04-23 18:36 | 45.38412 | 1.34483 | 15411 ft | 265 kts | 174° |
| 2026-04-23 18:36 | 45.36583 | 1.34797 | 15041 ft | 264 kts | 173° |
| 2026-04-23 18:37 | 45.34750 | 1.35111 | 14668 ft | 263 kts | 173° |
| 2026-04-23 18:37 | 45.33003 | 1.35409 | 14313 ft | 261 kts | 173° |
| 2026-04-23 18:37 | 45.31192 | 1.35720 | 13945 ft | 260 kts | 173° |
| 2026-04-23 18:37 | 45.29402 | 1.36025 | 13578 ft | 258 kts | 173° |
| 2026-04-23 18:38 | 45.27637 | 1.36326 | 13215 ft | 257 kts | 173° |
| 2026-04-23 18:38 | 45.25853 | 1.36630 | 12845 ft | 255 kts | 173° |
| 2026-04-23 18:38 | 45.24096 | 1.36929 | 12477 ft | 254 kts | 173° |
| 2026-04-23 18:38 | 45.22337 | 1.37230 | 12103 ft | 253 kts | 172° |
| 2026-04-23 18:39 | 45.20607 | 1.37524 | 11729 ft | 251 kts | 172° |
| 2026-04-23 18:39 | 45.18880 | 1.37817 | 11355 ft | 250 kts | 172° |
| 2026-04-23 18:39 | 45.17152 | 1.38112 | 10984 ft | 249 kts | 172° |
| 2026-04-23 18:39 | 45.15432 | 1.38404 | 10611 ft | 248 kts | 172° |
| 2026-04-23 18:40 | 45.13788 | 1.38683 | 10250 ft | 247 kts | 171° |
| 2026-04-23 18:40 | 45.12094 | 1.38970 | 9873 ft | 244 kts | 171° |
| 2026-04-23 18:40 | 45.10405 | 1.39255 | 9488 ft | 240 kts | 171° |
| 2026-04-23 18:40 | 45.08756 | 1.39534 | 9122 ft | 236 kts | 171° |
| 2026-04-23 18:41 | 45.07129 | 1.39809 | 8738 ft | 234 kts | 170° |
| 2026-04-23 18:41 | 45.05520 | 1.40084 | 8351 ft | 232 kts | 170° |
| 2026-04-23 18:41 | 45.03946 | 1.40352 | 7981 ft | 230 kts | 169° |
| 2026-04-23 18:41 | 45.02339 | 1.40626 | 7605 ft | 228 kts | 169° |
| 2026-04-23 18:42 | 45.00814 | 1.40875 | 7238 ft | 216 kts | 169° |
| 2026-04-23 18:42 | 44.99355 | 1.41123 | 6866 ft | 206 kts | 169° |
| 2026-04-23 18:42 | 44.97953 | 1.41361 | 6500 ft | 199 kts | 168° |
| 2026-04-23 18:42 | 44.96615 | 1.41588 | 6148 ft | 194 kts | 168° |
| 2026-04-23 18:43 | 44.95285 | 1.41816 | 5785 ft | 189 kts | 168° |
| 2026-04-23 18:43 | 44.93990 | 1.42036 | 5418 ft | 186 kts | 168° |
| 2026-04-23 18:43 | 44.92717 | 1.42252 | 5051 ft | 183 kts | 168° |
| 2026-04-23 18:43 | 44.91465 | 1.42463 | 4686 ft | 180 kts | 168° |
| 2026-04-23 18:44 | 44.90231 | 1.42671 | 4320 ft | 177 kts | 168° |
| 2026-04-23 18:44 | 44.89158 | 1.43310 | 3954 ft | 162 kts | 138° |
| 2026-04-23 18:44 | 44.88402 | 1.44336 | 3712 ft | 148 kts | 130° |
| 2026-04-23 18:44 | 44.87752 | 1.45361 | 3587 ft | 140 kts | 129° |
| 2026-04-23 18:45 | 44.87152 | 1.46332 | 3458 ft | 138 kts | 129° |
| 2026-04-23 18:45 | 44.86517 | 1.47369 | 3340 ft | 135 kts | 129° |
| 2026-04-23 18:45 | 44.85905 | 1.48371 | 3221 ft | 133 kts | 129° |
| 2026-04-23 18:45 | 44.85300 | 1.49361 | 3099 ft | 131 kts | 129° |
| 2026-04-23 18:46 | 44.84710 | 1.50327 | 2981 ft | 130 kts | 129° |
| 2026-04-23 18:46 | 44.84112 | 1.51304 | 2860 ft | 130 kts | 129° |
| 2026-04-23 18:46 | 44.83530 | 1.52257 | 2739 ft | 130 kts | 129° |
| 2026-04-23 18:46 | 44.82916 | 1.53271 | 2640 ft | 140 kts | 129° |
| 2026-04-23 18:47 | 44.82258 | 1.54348 | 2591 ft | 147 kts | 129° |
| 2026-04-23 18:47 | 44.81570 | 1.55469 | 2556 ft | 152 kts | 129° |
| 2026-04-23 18:47 | 44.80866 | 1.56617 | 2487 ft | 155 kts | 129° |
| 2026-04-23 18:47 | 44.80163 | 1.57767 | 2461 ft | 155 kts | 129° |
| 2026-04-23 18:48 | 44.79459 | 1.58921 | 2407 ft | 153 kts | 129° |
| 2026-04-23 18:48 | 44.78764 | 1.60057 | 2343 ft | 152 kts | 129° |
| 2026-04-23 18:48 | 44.78073 | 1.61183 | 2333 ft | 149 kts | 129° |
| 2026-04-23 18:48 | 44.77398 | 1.62283 | 2336 ft | 146 kts | 129° |
| 2026-04-23 18:49 | 44.76738 | 1.63362 | 2326 ft | 144 kts | 129° |
| 2026-04-23 18:49 | 44.76122 | 1.64368 | 2321 ft | 142 kts | 129° |
| 2026-04-23 18:49 | 44.75478 | 1.65416 | 2332 ft | 141 kts | 129° |
| 2026-04-23 18:49 | 44.74846 | 1.66446 | 2328 ft | 140 kts | 129° |
| 2026-04-23 18:50 | 44.74415 | 1.67149 | 2335 ft | 140 kts | 129° |
| 2026-04-23 18:50 | 44.73572 | 1.68523 | 2330 ft | 140 kts | 129° |
| 2026-04-23 18:50 | 44.72977 | 1.69492 | 2330 ft | 140 kts | 130° |
| 2026-04-23 18:50 | 44.72335 | 1.70538 | 2333 ft | 139 kts | 129° |
| 2026-04-23 18:51 | 44.71704 | 1.71564 | 2339 ft | 139 kts | 129° |
| 2026-04-23 18:51 | 44.71066 | 1.72602 | 2335 ft | 140 kts | 129° |
| 2026-04-23 18:51 | 44.70430 | 1.73634 | 2345 ft | 140 kts | 129° |
| 2026-04-23 18:51 | 44.69785 | 1.74685 | 2337 ft | 141 kts | 129° |
| 2026-04-23 18:52 | 44.69148 | 1.75720 | 2339 ft | 140 kts | 129° |
| 2026-04-23 18:52 | 44.68507 | 1.76762 | 2337 ft | 140 kts | 129° |
| 2026-04-23 18:52 | 44.67869 | 1.77797 | 2338 ft | 140 kts | 129° |
| 2026-04-23 18:52 | 44.67222 | 1.78847 | 2333 ft | 140 kts | 130° |
| 2026-04-23 18:53 | 44.66558 | 1.79842 | 2311 ft | 142 kts | 143° |
| 2026-04-23 18:53 | 44.65614 | 1.79964 | 2334 ft | 143 kts | 185° |
| 2026-04-23 18:53 | 44.64697 | 1.80184 | 2216 ft | 129 kts | 134° |
| 2026-04-23 18:53 | 44.64685 | 1.81304 | 2044 ft | 142 kts | 45° |
| 2026-04-23 18:54 | 44.65696 | 1.81373 | 2012 ft | 146 kts | 351° |
| 2026-04-23 18:54 | 44.66656 | 1.81060 | 1916 ft | 136 kts | 354° |
| 2026-04-23 18:54 | 44.67553 | 1.80770 | 1789 ft | 128 kts | 352° |
| 2026-04-23 18:54 | 44.68386 | 1.80445 | 1740 ft | 115 kts | 339° |
| 2026-04-23 18:55 | 44.68773 | 1.79574 | 1719 ft | 108 kts | 276° |
| 2026-04-23 18:55 | 44.68892 | 1.78508 | 1732 ft | 114 kts | 275° |
| 2026-04-23 18:55 | 44.69053 | 1.77363 | 1757 ft | 119 kts | 276° |
| 2026-04-23 18:55 | 44.69177 | 1.76414 | 1816 ft | 119 kts | 276° |
| 2026-04-23 18:56 | 44.69213 | 1.76151 | 1817 ft | 121 kts | 278° |
| 2026-04-23 18:56 | 44.69453 | 1.74608 | 1886 ft | 119 kts | 269° |
| 2026-04-23 18:56 | 44.69094 | 1.73877 | 1871 ft | 86 kts | 172° |
| 2026-04-23 18:56 | 44.68648 | 1.74121 | 1945 ft | 68 kts | 137° |
| 2026-04-23 18:57 | 44.68323 | 1.74639 | 1930 ft | 72 kts | 119° |
| 2026-04-23 18:57 | 44.68143 | 1.75322 | 1809 ft | 76 kts | 106° |
| 2026-04-23 18:57 | 44.67970 | 1.75999 | 1674 ft | 70 kts | 112° |
| 2026-04-23 18:57 | 44.67793 | 1.76609 | 1487 ft | 65 kts | 110° |
| 2026-04-23 18:58 | 44.67636 | 1.77235 | 1331 ft | 71 kts | 110° |
| 2026-04-23 18:58 | 44.67475 | 1.77869 | 1164 ft | 68 kts | 110° |
| 2026-04-23 18:58 | 44.67330 | 1.78452 | 1074 ft | 51 kts | 111° |
| 2026-04-23 18:58 | 44.67226 | 1.78857 | 1079 ft | 27 kts | 110° |
| 2026-04-23 18:59 | 44.67193 | 1.78958 | 1080 ft | 5 kts | 174° |
| 2026-04-23 18:59 | 44.67145 | 1.78939 | 1080 ft | 6 kts | 199° |
| 2026-04-23 18:59 | 44.67128 | 1.78931 | 1080 ft | 0 kts | 194° |
| 2026-04-23 18:59 | 44.67114 | 1.78939 | 1080 ft | 3 kts | 115° |
| 2026-04-23 19:00 | 44.67094 | 1.78975 | 1080 ft | 6 kts | 145° |
| 2026-04-23 19:00 | 44.67080 | 1.79004 | 1080 ft | 3 kts | 107° |
| 2026-04-23 19:00 | 44.67079 | 1.79006 | 1080 ft | 0 kts | 109° |